Etusivu
METAR-TAF:

METAR-TAF

Lentoasemat :

Florø, Norja

Leveyspiiri: 61-35N, Pituuspiiri: 005-02E, korkeus merenpinnasta: 0 m

Tämänhetkinen sää

Tämä raportti tehtiin 26 minuuttia sitten, kello 20.20 UTC
Tuuli 4 kn lännestä/luoteesta
Lämpötila 15°C
Kosteus 88%
Ilmanpaine 1017 hPa
Näkyvyys 10 km tai enemmän

METAR: ENFL 212020Z AUTO 30004KT 9999NDV FEW011/// BKN016/// OVC047/// 15/13 Q1017

Aika: 22:46 (20:46 UTC)

Sääennuste

Tämä raportti tehtiin 6 tuntia ja 46 minuuttia sitten, kello 14.00 UTC
Ennuste voimassa 21. päivästä klo 15 UTC - 21. päivään klo 20 UTC
Tuuli 7 kn eri suunnista
Näkyvyys 10 km tai enemmän
Muutamia pilviä 2000 ft:n korkeudessa
Hajonneita pilviä 5000 ft:n korkeudessa
Todennäköisyys 30% :
Ajoittain
21. päivästä klo 15 UTC - 21. päivään klo 18 UTC
Tuuli 10 kn lounaasta
Näkyvyys: 4000 m
Hajonneita pilviä 1000 ft:n korkeudessa
heikkoa sadetta, utua

TAF: ENFL 211400Z 2115/2120 VRB07KT 9999 FEW020 BKN050 PROB30 TEMPO 2115/2118 22010KT 4000 -RA BR BKN010

Säähavainnot ja -ennusteet yli 4000 lentoasemalta (METAR- ja TAF-raportit).

Käytössä olevat sääasemat on merkitty karttaan keltaisilla ja punaisilla pisteillä.

Aseta hiiri pisteen päälle nähdäksesi sääaseman nimen.

Klikkaa sitten nähdäksesi säähavainnot ja -ennusteet.

Kartan vaihtaminen: klikkaa mustalla rastilla varustettuja vihreitä pisteitä, niin voit zoomata sisään; viivalla varustettua vihreää pistettä, niin voit zoomata ulos tai vihreitä nuolia, niin pääset viereisille kartoille.


METAR-TAF: